Time;durP1;ratioP1;P1;durP2;ratioP2;P2;SDS_P1;SDS_P2;PMS_P1;PMS_P2;Temp;Humidity;BMP_temperature;BMP_pressure;BME280_temperature;BME280_humidity;BME280_pressure;Samples;Min_cycle;Max_cycle;Signal;HPM_P1;HPM_P2
2023/05/03 00:01:28;;;;;;;13.45;7.30;;;;;;;;;;5115511;28;20229;-45
2023/05/03 00:03:55;;;;;;;16.15;8.23;;;;;;;;;;5097874;28;20206;-45
2023/05/03 00:06:23;;;;;;;10.05;6.45;;;;;;;;;;5094864;28;20213;-45
2023/05/03 00:08:50;;;;;;;9.82;6.20;;;;;;;;;;5094929;28;20236;-45
2023/05/03 00:11:17;;;;;;;13.10;6.50;;;;;;;;;;5094297;28;20210;-44
2023/05/03 00:13:44;;;;;;;16.77;8.10;;;;;;;;;;5095096;28;20199;-47
2023/05/03 00:16:12;;;;;;;27.45;10.80;;;;;;;;;;5094738;28;20659;-44
2023/05/03 00:18:39;;;;;;;14.27;8.55;;;;;;;;;;5094343;28;20302;-48
2023/05/03 00:21:06;;;;;;;9.80;6.22;;;;;;;;;;5093690;28;20230;-46
2023/05/03 00:23:33;;;;;;;11.70;6.10;;;;;;;;;;5094713;28;20207;-44
2023/05/03 00:26:00;;;;;;;11.85;6.70;;;;;;;;;;5092671;28;20656;-45
2023/05/03 00:28:27;;;;;;;8.05;5.68;;;;;;;;;;5094641;28;20610;-45
2023/05/03 00:30:55;;;;;;;9.55;6.13;;;;;;;;;;5094599;28;20619;-47
2023/05/03 00:33:22;;;;;;;7.03;4.82;;;;;;;;;;5094343;28;20203;-45
2023/05/03 00:35:50;;;;;;;9.68;6.18;;;;;;;;;;5094295;28;20203;-46
2023/05/03 00:38:17;;;;;;;10.98;5.90;;;;;;;;;;5093176;28;20244;-46
2023/05/03 00:40:45;;;;;;;10.85;6.97;;;;;;;;;;5094291;28;20637;-45
2023/05/03 00:43:12;;;;;;;8.00;5.80;;;;;;;;;;5094471;28;20202;-45
2023/05/03 00:45:40;;;;;;;8.98;5.70;;;;;;;;;;5094528;28;20206;-46
2023/05/03 00:48:07;;;;;;;7.90;4.93;;;;;;;;;;5094263;28;20198;-47
2023/05/03 00:50:35;;;;;;;9.18;5.53;;;;;;;;;;5094320;28;20259;-47
2023/05/03 00:53:02;;;;;;;10.23;6.10;;;;;;;;;;5093168;28;20206;-45
2023/05/03 00:55:30;;;;;;;7.82;5.40;;;;;;;;;;5094038;28;20198;-46
2023/05/03 00:57:57;;;;;;;9.98;6.43;;;;;;;;;;5094175;28;20202;-46
2023/05/03 01:00:25;;;;;;;9.32;5.25;;;;;;;;;;5094055;28;20275;-44
2023/05/03 01:02:52;;;;;;;10.00;5.93;;;;;;;;;;5093903;28;20589;-45
2023/05/03 01:05:21;;;;;;;7.78;5.18;;;;;;;;;;5093877;28;20224;-45
2023/05/03 01:07:48;;;;;;;12.00;6.32;;;;;;;;;;5094178;28;20203;-45
2023/05/03 01:10:32;;;;;;;10.73;6.40;;;;;;;;;;5092794;28;20209;-45
2023/05/03 01:13:25;;;;;;;10.40;5.88;;;;;;;;;;5093907;28;20229;-44
2023/05/03 01:15:59;;;;;;;8.77;5.53;;;;;;;;;;5093007;28;20209;-45
2023/05/03 01:18:32;;;;;;;11.05;5.75;;;;;;;;;;5093937;28;20269;-45
2023/05/03 01:21:01;;;;;;;8.13;5.63;;;;;;;;;;5092668;28;20296;-45
2023/05/03 01:23:32;;;;;;;10.30;5.97;;;;;;;;;;5075773;28;20198;-44
2023/05/03 01:26:13;;;;;;;9.48;6.15;;;;;;;;;;5093736;28;20666;-46
2023/05/03 01:28:41;;;;;;;10.00;6.07;;;;;;;;;;5092689;28;20203;-49
2023/05/03 01:31:09;;;;;;;7.10;5.38;;;;;;;;;;5093226;28;20569;-45
2023/05/03 01:33:43;;;;;;;9.10;5.40;;;;;;;;;;5093547;28;20199;-45
2023/05/03 01:36:15;;;;;;;6.53;5.10;;;;;;;;;;5075900;28;20562;-46
2023/05/03 01:38:43;;;;;;;9.27;6.03;;;;;;;;;;5092627;28;20202;-46
2023/05/03 01:41:11;;;;;;;10.60;6.40;;;;;;;;;;5091978;28;20717;-46
2023/05/03 01:43:39;;;;;;;8.38;6.32;;;;;;;;;;5093551;28;20207;-45
2023/05/03 01:46:07;;;;;;;9.00;5.82;;;;;;;;;;5075507;28;20210;-45
2023/05/03 01:48:34;;;;;;;12.57;5.90;;;;;;;;;;5092288;28;20565;-45
2023/05/03 01:51:02;;;;;;;10.20;5.88;;;;;;;;;;5092109;28;20206;-46
2023/05/03 01:53:29;;;;;;;9.50;6.57;;;;;;;;;;5092158;28;20710;-46
2023/05/03 01:55:56;;;;;;;8.63;5.97;;;;;;;;;;5092245;28;20675;-44
2023/05/03 01:58:23;;;;;;;8.65;5.65;;;;;;;;;;5092332;28;20297;-46
2023/05/03 02:00:52;;;;;;;8.90;6.15;;;;;;;;;;5074812;28;20206;-45
2023/05/03 02:03:19;;;;;;;9.82;6.55;;;;;;;;;;5092413;28;20203;-45
2023/05/03 02:05:47;;;;;;;9.13;5.75;;;;;;;;;;5093134;28;20663;-45
2023/05/03 02:08:15;;;;;;;10.25;5.82;;;;;;;;;;5093176;28;20678;-45
2023/05/03 02:10:43;;;;;;;10.70;6.43;;;;;;;;;;5093117;28;20210;-45
2023/05/03 02:13:10;;;;;;;8.88;6.15;;;;;;;;;;5093817;28;20203;-46
2023/05/03 02:15:37;;;;;;;9.95;6.53;;;;;;;;;;5092262;28;20203;-45
2023/05/03 02:18:04;;;;;;;10.68;6.22;;;;;;;;;;5093192;28;20203;-45
2023/05/03 02:20:36;;;;;;;9.77;6.07;;;;;;;;;;5092342;28;20206;-45
2023/05/03 02:23:03;;;;;;;10.27;5.93;;;;;;;;;;5092044;28;20222;-48
2023/05/03 02:25:31;;;;;;;9.25;6.05;;;;;;;;;;5091812;28;20206;-45
2023/05/03 02:27:58;;;;;;;8.85;5.53;;;;;;;;;;5092833;28;20274;-44
2023/05/03 02:30:25;;;;;;;8.13;5.97;;;;;;;;;;5092739;28;20207;-45
2023/05/03 02:32:52;;;;;;;9.57;6.68;;;;;;;;;;5092957;28;20229;-45
2023/05/03 02:35:20;;;;;;;9.32;6.32;;;;;;;;;;5091721;28;20198;-46
2023/05/03 02:37:47;;;;;;;10.38;6.60;;;;;;;;;;5091627;28;20213;-45
2023/05/03 02:40:15;;;;;;;9.52;5.75;;;;;;;;;;5091536;28;20227;-46
2023/05/03 02:42:45;;;;;;;10.30;6.32;;;;;;;;;;5092197;28;20226;-44
2023/05/03 02:45:16;;;;;;;10.93;6.32;;;;;;;;;;5095127;28;20210;-44
2023/05/03 02:47:43;;;;;;;8.30;5.75;;;;;;;;;;5095108;28;20203;-48
2023/05/03 02:50:11;;;;;;;13.10;6.60;;;;;;;;;;5095205;28;20203;-44
2023/05/03 02:52:39;;;;;;;8.88;5.43;;;;;;;;;;5095116;28;20645;-45
2023/05/03 02:55:07;;;;;;;8.88;5.85;;;;;;;;;;5096082;28;20199;-45
2023/05/03 02:57:35;;;;;;;9.23;4.82;;;;;;;;;;5096005;28;20727;-46
2023/05/03 03:00:05;;;;;;;5.13;4.18;;;;;;;;;;5094763;28;20198;-45
2023/05/03 03:02:32;;;;;;;6.32;3.80;;;;;;;;;;5094745;28;20695;-46
2023/05/03 03:05:00;;;;;;;5.72;3.95;;;;;;;;;;5094704;28;20731;-45
2023/05/03 03:07:27;;;;;;;7.03;4.10;;;;;;;;;;5094969;28;20199;-46
2023/05/03 03:09:57;;;;;;;5.55;3.72;;;;;;;;;;5094608;28;20231;-45
2023/05/03 03:12:26;;;;;;;6.22;3.92;;;;;;;;;;5094589;28;20230;-46
2023/05/03 03:14:54;;;;;;;4.72;3.58;;;;;;;;;;5094637;28;20728;-45
2023/05/03 03:17:22;;;;;;;4.57;3.33;;;;;;;;;;5078130;28;20202;-45
2023/05/03 03:19:50;;;;;;;6.53;3.58;;;;;;;;;;5094470;28;20609;-45
2023/05/03 03:22:17;;;;;;;7.70;3.97;;;;;;;;;;5094615;28;20229;-45
2023/05/03 03:24:45;;;;;;;5.38;3.90;;;;;;;;;;5094406;28;20225;-46
2023/05/03 03:27:12;;;;;;;6.68;4.10;;;;;;;;;;5095756;28;20198;-45
2023/05/03 03:29:40;;;;;;;5.20;3.83;;;;;;;;;;5094527;28;20210;-46
2023/05/03 03:32:10;;;;;;;5.68;3.95;;;;;;;;;;5094466;28;20293;-44
2023/05/03 03:34:38;;;;;;;5.13;3.45;;;;;;;;;;5094604;28;20215;-44
2023/05/03 03:37:05;;;;;;;5.45;3.58;;;;;;;;;;5094614;28;20202;-45
2023/05/03 03:39:34;;;;;;;4.65;3.10;;;;;;;;;;5094225;28;20230;-44
2023/05/03 03:42:01;;;;;;;5.32;2.78;;;;;;;;;;5094250;28;20214;-45
2023/05/03 03:44:29;;;;;;;4.53;2.63;;;;;;;;;;5094667;28;20221;-45
2023/05/03 03:46:56;;;;;;;4.40;2.70;;;;;;;;;;5094115;28;20652;-45
2023/05/03 03:49:24;;;;;;;3.97;2.58;;;;;;;;;;5085880;28;20566;-44
2023/05/03 03:51:51;;;;;;;3.42;2.60;;;;;;;;;;5092635;28;20199;-46
2023/05/03 03:54:18;;;;;;;4.32;2.80;;;;;;;;;;5092242;28;20202;-45
2023/05/03 03:56:49;;;;;;;3.47;2.35;;;;;;;;;;5086533;28;20199;-44
2023/05/03 03:59:17;;;;;;;3.17;2.25;;;;;;;;;;5091223;28;20680;-44
2023/05/03 04:01:45;;;;;;;3.53;2.63;;;;;;;;;;5092435;28;20633;-44
2023/05/03 04:04:13;;;;;;;3.90;2.53;;;;;;;;;;5091880;28;20204;-43
2023/05/03 04:06:40;;;;;;;4.88;3.13;;;;;;;;;;5092643;28;20224;-44
2023/05/03 04:09:12;;;;;;;3.00;2.42;;;;;;;;;;5087278;28;20558;-43
2023/05/03 04:11:39;;;;;;;4.43;2.80;;;;;;;;;;5091665;28;20214;-45
2023/05/03 04:14:07;;;;;;;3.42;2.60;;;;;;;;;;5089800;28;20199;-47
2023/05/03 04:16:35;;;;;;;4.78;2.40;;;;;;;;;;5092230;28;20201;-44
2023/05/03 04:19:04;;;;;;;4.50;2.88;;;;;;;;;;5092292;28;20602;-43
2023/05/03 04:21:34;;;;;;;4.78;2.50;;;;;;;;;;5091116;28;20584;-44
2023/05/03 04:24:04;;;;;;;4.03;2.53;;;;;;;;;;5092323;28;20202;-44
2023/05/03 04:26:32;;;;;;;3.47;2.58;;;;;;;;;;5090275;28;20723;-48
2023/05/03 04:29:08;;;;;;;3.95;2.72;;;;;;;;;;5076461;28;20214;-47
2023/05/03 04:31:35;;;;;;;2.80;2.22;;;;;;;;;;5093279;28;20221;-44
2023/05/03 04:34:02;;;;;;;2.90;1.98;;;;;;;;;;5091568;28;20195;-45
2023/05/03 04:36:30;;;;;;;4.32;2.47;;;;;;;;;;5091883;28;20199;-44
2023/05/03 04:38:58;;;;;;;3.38;2.40;;;;;;;;;;5091907;28;20199;-44
2023/05/03 04:41:25;;;;;;;3.83;2.47;;;;;;;;;;5091562;28;20568;-46
2023/05/03 04:43:53;;;;;;;4.07;2.33;;;;;;;;;;5091494;28;20223;-48
2023/05/03 04:46:21;;;;;;;4.78;2.60;;;;;;;;;;5075306;28;20198;-46
2023/05/03 04:48:50;;;;;;;3.60;2.35;;;;;;;;;;5091804;28;20202;-44
2023/05/03 04:51:17;;;;;;;2.88;2.40;;;;;;;;;;5088701;28;20635;-45
2023/05/03 04:53:46;;;;;;;4.53;2.50;;;;;;;;;;5091698;28;20199;-45
2023/05/03 04:56:18;;;;;;;4.18;2.38;;;;;;;;;;5092042;28;20180;-45
2023/05/03 04:58:45;;;;;;;3.47;2.33;;;;;;;;;;5092015;28;20198;-45
2023/05/03 05:01:15;;;;;;;4.15;2.55;;;;;;;;;;5091546;28;20201;-44
2023/05/03 05:03:43;;;;;;;3.40;1.98;;;;;;;;;;5091800;28;20226;-46
2023/05/03 05:06:16;;;;;;;3.70;2.45;;;;;;;;;;5091742;28;20232;-44
2023/05/03 05:08:44;;;;;;;5.30;2.60;;;;;;;;;;5092248;28;20716;-44
2023/05/03 05:11:13;;;;;;;3.85;2.05;;;;;;;;;;5087455;28;20244;-48
2023/05/03 05:13:41;;;;;;;3.88;2.33;;;;;;;;;;5074369;28;20204;-45
2023/05/03 05:16:08;;;;;;;3.10;2.13;;;;;;;;;;5092134;28;20199;-45
2023/05/03 05:18:38;;;;;;;2.33;1.98;;;;;;;;;;5092418;28;20202;-48
2023/05/03 05:21:07;;;;;;;2.63;2.17;;;;;;;;;;5091932;28;20565;-47
2023/05/03 05:23:36;;;;;;;3.75;2.20;;;;;;;;;;5093149;28;20225;-45
2023/05/03 05:26:04;;;;;;;4.22;2.28;;;;;;;;;;5093117;28;20191;-45
2023/05/03 05:28:32;;;;;;;3.95;2.30;;;;;;;;;;5089764;28;20195;-45
2023/05/03 05:31:00;;;;;;;4.30;2.10;;;;;;;;;;5091884;28;20625;-45
2023/05/03 05:33:28;;;;;;;4.30;2.33;;;;;;;;;;5092114;28;20191;-44
2023/05/03 05:35:56;;;;;;;3.72;2.35;;;;;;;;;;5091767;28;20195;-44
2023/05/03 05:38:24;;;;;;;2.42;2.00;;;;;;;;;;5093333;28;20191;-47
2023/05/03 05:40:55;;;;;;;2.88;2.25;;;;;;;;;;5085804;28;20226;-45
2023/05/03 05:43:23;;;;;;;3.65;2.08;;;;;;;;;;5092156;28;20560;-46
2023/05/03 05:45:50;;;;;;;2.72;1.95;;;;;;;;;;5088959;28;20199;-46
2023/05/03 05:48:19;;;;;;;5.57;2.33;;;;;;;;;;5091489;28;20199;-44
2023/05/03 05:50:47;;;;;;;2.92;2.20;;;;;;;;;;5074570;28;20194;-46
2023/05/03 05:53:15;;;;;;;2.70;2.28;;;;;;;;;;5092026;28;20194;-44
2023/05/03 05:55:52;;;;;;;3.78;2.00;;;;;;;;;;5091875;28;20194;-46
2023/05/03 05:58:19;;;;;;;3.70;2.25;;;;;;;;;;5090393;28;20190;-45
2023/05/03 06:00:50;;;;;;;3.80;2.67;;;;;;;;;;5090206;28;20282;-47
2023/05/03 06:03:18;;;;;;;4.03;2.33;;;;;;;;;;5091397;28;20611;-45
2023/05/03 06:05:48;;;;;;;2.00;1.70;;;;;;;;;;5090067;28;20277;-46
2023/05/03 06:08:15;;;;;;;3.15;2.22;;;;;;;;;;5089981;28;20206;-46
2023/05/03 06:10:42;;;;;;;3.53;1.90;;;;;;;;;;5087196;28;20199;-46
2023/05/03 06:13:10;;;;;;;3.05;1.98;;;;;;;;;;5084234;28;20256;-50
2023/05/03 06:15:37;;;;;;;2.20;1.80;;;;;;;;;;5090263;28;20217;-46
2023/05/03 06:18:04;;;;;;;3.47;2.33;;;;;;;;;;5093716;28;20202;-45
2023/05/03 06:20:32;;;;;;;2.92;1.88;;;;;;;;;;5093515;28;20657;-44
2023/05/03 06:23:01;;;;;;;2.42;1.88;;;;;;;;;;5095004;28;20248;-46
2023/05/03 06:25:28;;;;;;;3.35;2.08;;;;;;;;;;5091000;28;20190;-46
2023/05/03 06:27:56;;;;;;;2.35;1.50;;;;;;;;;;5094628;28;20206;-45
2023/05/03 06:30:27;;;;;;;3.53;2.13;;;;;;;;;;5094258;28;20187;-46
2023/05/03 06:33:00;;;;;;;4.32;2.05;;;;;;;;;;5094303;28;20187;-44
2023/05/03 06:35:28;;;;;;;3.45;1.75;;;;;;;;;;5094464;28;20542;-44
2023/05/03 06:37:55;;;;;;;2.00;1.65;;;;;;;;;;5096498;28;20248;-44
2023/05/03 06:40:24;;;;;;;2.25;2.03;;;;;;;;;;5095426;28;20229;-44
2023/05/03 06:42:51;;;;;;;4.10;2.25;;;;;;;;;;5096032;28;20260;-45
2023/05/03 06:45:32;;;;;;;3.25;2.20;;;;;;;;;;5086392;28;20674;-43
2023/05/03 06:47:59;;;;;;;2.67;2.03;;;;;;;;;;5118588;27;20241;-44
2023/05/03 06:50:26;;;;;;;4.50;2.22;;;;;;;;;;5094275;28;20272;-46
2023/05/03 06:52:54;;;;;;;2.03;1.83;;;;;;;;;;5093635;28;20576;-44
2023/05/03 06:55:20;;;;;;;2.95;2.05;;;;;;;;;;5095188;28;20214;-45
2023/05/03 06:57:48;;;;;;;3.58;2.33;;;;;;;;;;5093027;28;20560;-47
2023/05/03 07:00:15;;;;;;;4.45;2.10;;;;;;;;;;5087838;28;20214;-44
2023/05/03 07:02:43;;;;;;;3.83;1.65;;;;;;;;;;5094034;28;20223;-43
2023/05/03 07:05:10;;;;;;;4.72;2.17;;;;;;;;;;5094515;28;20242;-42
2023/05/03 07:07:37;;;;;;;4.82;2.53;;;;;;;;;;5094056;28;20226;-43
2023/05/03 07:10:05;;;;;;;3.83;2.45;;;;;;;;;;5094635;28;20699;-43
2023/05/03 07:12:33;;;;;;;3.08;1.90;;;;;;;;;;5093984;28;20253;-46
2023/05/03 07:15:00;;;;;;;2.50;1.85;;;;;;;;;;5093799;28;20214;-45
2023/05/03 07:17:27;;;;;;;6.20;2.10;;;;;;;;;;5090629;28;20586;-44
2023/05/03 07:19:55;;;;;;;2.03;1.45;;;;;;;;;;5086649;28;20215;-44
2023/05/03 07:22:26;;;;;;;2.65;1.88;;;;;;;;;;5087662;28;20224;-45
2023/05/03 07:24:54;;;;;;;2.30;1.70;;;;;;;;;;5092539;28;20722;-45
2023/05/03 07:27:22;;;;;;;2.33;1.77;;;;;;;;;;5089200;28;20223;-45
2023/05/03 07:29:49;;;;;;;4.25;1.52;;;;;;;;;;5093240;28;20317;-46
2023/05/03 07:32:16;;;;;;;1.88;1.13;;;;;;;;;;5092910;28;20695;-45
2023/05/03 07:34:43;;;;;;;1.83;1.20;;;;;;;;;;5093181;28;20214;-45
2023/05/03 07:37:11;;;;;;;2.33;1.42;;;;;;;;;;5092368;28;20687;-47
2023/05/03 07:39:38;;;;;;;3.78;1.63;;;;;;;;;;5090892;28;20280;-46
2023/05/03 07:42:06;;;;;;;2.15;1.58;;;;;;;;;;5091615;28;20227;-46
2023/05/03 07:44:33;;;;;;;1.40;1.23;;;;;;;;;;5091161;28;20226;-46
2023/05/03 07:47:00;;;;;;;2.28;1.50;;;;;;;;;;5094220;28;20227;-47
2023/05/03 07:49:27;;;;;;;2.55;1.42;;;;;;;;;;5094418;28;20222;-46
2023/05/03 07:51:55;;;;;;;2.25;1.35;;;;;;;;;;5093388;28;20223;-46
2023/05/03 07:54:22;;;;;;;2.78;1.60;;;;;;;;;;5092777;28;20222;-46
2023/05/03 07:56:50;;;;;;;2.50;1.60;;;;;;;;;;5092237;28;20226;-47
2023/05/03 07:59:17;;;;;;;2.15;1.20;;;;;;;;;;5092704;28;20222;-47
2023/05/03 08:01:45;;;;;;;2.35;1.60;;;;;;;;;;5087609;28;20250;-46
2023/05/03 08:04:12;;;;;;;1.98;1.42;;;;;;;;;;5091703;28;20321;-46
2023/05/03 08:06:39;;;;;;;2.20;1.60;;;;;;;;;;5092302;28;20226;-46
2023/05/03 08:09:07;;;;;;;1.52;1.27;;;;;;;;;;5094034;28;20276;-46
2023/05/03 08:11:35;;;;;;;2.72;1.40;;;;;;;;;;5092189;28;20215;-47
2023/05/03 08:14:02;;;;;;;3.00;1.88;;;;;;;;;;5094050;28;20214;-46
2023/05/03 08:16:29;;;;;;;3.03;1.45;;;;;;;;;;5092193;28;20275;-46
2023/05/03 08:18:57;;;;;;;2.20;1.45;;;;;;;;;;5091173;28;20557;-46
2023/05/03 08:21:25;;;;;;;3.03;1.63;;;;;;;;;;5093625;28;20730;-47
2023/05/03 08:23:52;;;;;;;2.55;1.27;;;;;;;;;;5093550;28;20227;-46
2023/05/03 08:26:20;;;;;;;3.00;1.58;;;;;;;;;;5094241;28;20234;-46
2023/05/03 08:28:48;;;;;;;4.10;1.52;;;;;;;;;;5093540;28;20227;-47
2023/05/03 08:31:15;;;;;;;1.80;1.20;;;;;;;;;;5083109;28;20241;-47
2023/05/03 08:33:42;;;;;;;3.20;1.60;;;;;;;;;;5089897;28;20275;-46
2023/05/03 08:36:10;;;;;;;1.67;1.38;;;;;;;;;;5093845;28;20226;-48
2023/05/03 08:38:40;;;;;;;3.67;1.58;;;;;;;;;;5093608;28;20744;-45
2023/05/03 08:41:16;;;;;;;1.80;1.35;;;;;;;;;;5091532;28;20230;-49
2023/05/03 08:43:44;;;;;;;3.25;1.95;;;;;;;;;;5089632;28;20234;-46
2023/05/03 08:46:12;;;;;;;1.83;1.40;;;;;;;;;;5079807;28;20562;-46
2023/05/03 08:48:42;;;;;;;3.83;1.65;;;;;;;;;;5090198;28;20729;-47
2023/05/03 08:51:10;;;;;;;4.57;1.25;;;;;;;;;;5088690;28;20548;-46
2023/05/03 08:53:36;;;;;;;1.77;1.48;;;;;;;;;;5080751;28;20626;-46
2023/05/03 08:56:08;;;;;;;2.78;1.45;;;;;;;;;;5092427;28;20230;-46
2023/05/03 08:58:36;;;;;;;2.90;1.27;;;;;;;;;;5092944;28;20252;-46
2023/05/03 09:01:05;;;;;;;1.90;1.40;;;;;;;;;;5093130;28;20226;-46
2023/05/03 09:03:33;;;;;;;4.15;1.50;;;;;;;;;;5091519;28;20238;-47
2023/05/03 09:06:01;;;;;;;1.52;1.00;;;;;;;;;;5093572;28;20246;-46
2023/05/03 09:08:29;;;;;;;1.80;1.38;;;;;;;;;;5092823;28;20262;-48
2023/05/03 09:10:57;;;;;;;2.67;1.30;;;;;;;;;;5093506;28;20230;-48
2023/05/03 09:13:33;;;;;;;1.42;1.08;;;;;;;;;;5092547;28;20268;-45
2023/05/03 09:16:01;;;;;;;1.63;1.10;;;;;;;;;;5091747;28;20214;-47
2023/05/03 09:18:29;;;;;;;1.83;0.95;;;;;;;;;;5088846;28;20548;-47
2023/05/03 09:20:56;;;;;;;1.67;1.20;;;;;;;;;;5082510;28;20227;-46
2023/05/03 09:23:24;;;;;;;2.85;1.48;;;;;;;;;;5091810;28;20229;-46
2023/05/03 09:25:52;;;;;;;2.55;1.50;;;;;;;;;;5091341;28;20698;-46
2023/05/03 09:28:20;;;;;;;4.05;1.60;;;;;;;;;;5092345;28;20230;-46
2023/05/03 09:30:48;;;;;;;2.45;1.30;;;;;;;;;;5087594;28;20227;-46
2023/05/03 09:33:21;;;;;;;1.45;1.10;;;;;;;;;;5087320;28;20222;-46
2023/05/03 09:36:15;;;;;;;1.90;1.20;;;;;;;;;;5090812;28;20218;-45
2023/05/03 09:38:42;;;;;;;1.88;1.35;;;;;;;;;;5086459;28;20284;-46
2023/05/03 09:41:09;;;;;;;2.28;1.20;;;;;;;;;;5053974;28;20226;-46
2023/05/03 09:43:48;;;;;;;1.73;1.05;;;;;;;;;;5089770;28;20245;-45
2023/05/03 09:46:16;;;;;;;2.25;1.58;;;;;;;;;;5089163;28;20233;-47
2023/05/03 09:48:43;;;;;;;3.55;1.50;;;;;;;;;;5091082;28;20233;-47
2023/05/03 09:51:11;;;;;;;1.83;1.20;;;;;;;;;;5091399;28;20214;-47
2023/05/03 09:53:39;;;;;;;3.25;1.38;;;;;;;;;;5094780;28;20230;-46
2023/05/03 09:56:12;;;;;;;2.13;1.30;;;;;;;;;;5091084;28;20211;-47
2023/05/03 09:58:40;;;;;;;1.63;1.08;;;;;;;;;;5091754;28;20218;-47
2023/05/03 10:01:08;;;;;;;2.30;1.20;;;;;;;;;;5095256;28;20229;-48
2023/05/03 10:03:40;;;;;;;2.60;1.10;;;;;;;;;;5092501;28;20228;-47
2023/05/03 10:06:38;;;;;;;1.52;1.00;;;;;;;;;;5096542;28;20674;-48
2023/05/03 10:09:09;;;;;;;1.58;1.17;;;;;;;;;;5095458;28;20221;-48
2023/05/03 10:11:37;;;;;;;1.00;0.82;;;;;;;;;;5096506;28;20257;-50
2023/05/03 10:14:06;;;;;;;7.10;1.30;;;;;;;;;;5096216;28;20237;-47
2023/05/03 10:16:36;;;;;;;1.77;1.20;;;;;;;;;;5093906;28;20211;-47
2023/05/03 10:19:05;;;;;;;0.88;0.80;;;;;;;;;;5089719;28;20533;-48
2023/05/03 10:21:53;;;;;;;1.95;1.05;;;;;;;;;;5092745;28;20238;-45
2023/05/03 10:24:21;;;;;;;1.10;0.85;;;;;;;;;;5092312;28;20236;-46
2023/05/03 10:26:49;;;;;;;1.70;1.33;;;;;;;;;;5094274;28;20364;-46
2023/05/03 10:29:36;;;;;;;1.48;1.30;;;;;;;;;;5092612;28;20238;-47
2023/05/03 10:32:04;;;;;;;2.15;1.40;;;;;;;;;;5092944;28;20257;-49
2023/05/03 10:34:33;;;;;;;2.17;1.08;;;;;;;;;;5094592;28;20776;-46
2023/05/03 10:37:09;;;;;;;1.05;0.93;;;;;;;;;;5096151;28;20574;-48
2023/05/03 10:39:36;;;;;;;1.45;1.13;;;;;;;;;;5094460;28;20757;-46
2023/05/03 10:42:06;;;;;;;1.40;1.00;;;;;;;;;;5095131;28;20218;-48
2023/05/03 10:44:50;;;;;;;0.95;0.85;;;;;;;;;;5095257;28;20232;-46
2023/05/03 10:47:23;;;;;;;2.78;1.23;;;;;;;;;;5095859;28;20630;-48
2023/05/03 10:50:13;;;;;;;3.10;0.90;;;;;;;;;;5095585;28;20575;-47
2023/05/03 10:52:41;;;;;;;1.40;0.95;;;;;;;;;;5095151;28;20227;-46
2023/05/03 10:55:09;;;;;;;2.03;1.05;;;;;;;;;;5093549;28;20230;-47
2023/05/03 10:57:38;;;;;;;2.67;0.90;;;;;;;;;;5092733;28;20210;-48
2023/05/03 11:00:11;;;;;;;1.50;0.90;;;;;;;;;;5091468;28;20793;-47
2023/05/03 11:03:09;;;;;;;1.83;1.35;;;;;;;;;;5090083;28;20222;-47
2023/05/03 11:05:37;;;;;;;1.77;0.77;;;;;;;;;;5089410;28;20284;-47
2023/05/03 11:08:12;;;;;;;2.20;1.10;;;;;;;;;;5093733;28;20230;-47
2023/05/03 11:10:39;;;;;;;1.08;0.90;;;;;;;;;;5088119;28;20258;-46
2023/05/03 11:13:07;;;;;;;1.50;1.10;;;;;;;;;;5092948;28;20222;-47
2023/05/03 11:15:35;;;;;;;2.67;1.02;;;;;;;;;;5093748;28;20233;-46
2023/05/03 11:18:02;;;;;;;1.27;0.90;;;;;;;;;;5093884;28;20229;-48
2023/05/03 11:20:29;;;;;;;1.92;1.10;;;;;;;;;;5093468;28;20218;-47
2023/05/03 11:22:56;;;;;;;1.40;1.00;;;;;;;;;;5093602;28;20586;-47
2023/05/03 11:25:23;;;;;;;1.67;0.95;;;;;;;;;;5095000;28;20234;-46
2023/05/03 11:27:51;;;;;;;1.58;1.05;;;;;;;;;;5094563;28;20226;-48
2023/05/03 11:30:18;;;;;;;1.40;0.90;;;;;;;;;;5094895;28;20275;-47
2023/05/03 11:32:46;;;;;;;3.13;1.00;;;;;;;;;;5094416;28;20226;-47
2023/05/03 11:35:14;;;;;;;1.92;0.82;;;;;;;;;;5094709;28;20231;-47
2023/05/03 11:37:42;;;;;;;1.52;0.90;;;;;;;;;;5094530;28;20284;-46
2023/05/03 11:40:15;;;;;;;2.10;1.05;;;;;;;;;;5094795;28;20227;-47
2023/05/03 11:42:53;;;;;;;2.58;1.20;;;;;;;;;;5094077;28;20230;-47
2023/05/03 11:45:25;;;;;;;2.63;1.02;;;;;;;;;;5094989;28;20242;-47
2023/05/03 11:47:53;;;;;;;2.20;0.93;;;;;;;;;;5094741;28;20268;-47
2023/05/03 11:50:45;;;;;;;2.08;1.05;;;;;;;;;;5095045;28;20280;-47
2023/05/03 11:53:13;;;;;;;2.67;1.10;;;;;;;;;;5094472;28;20695;-47
2023/05/03 11:55:46;;;;;;;1.30;0.88;;;;;;;;;;5093943;28;20592;-48
2023/05/03 11:58:14;;;;;;;1.55;0.88;;;;;;;;;;5094414;28;20242;-46
2023/05/03 12:00:49;;;;;;;2.22;1.00;;;;;;;;;;5092869;28;20227;-47
2023/05/03 12:03:20;;;;;;;1.92;0.95;;;;;;;;;;5094237;27;20210;-47
2023/05/03 12:05:49;;;;;;;1.42;1.23;;;;;;;;;;5094241;28;20258;-48
2023/05/03 12:08:20;;;;;;;1.40;0.90;;;;;;;;;;5093437;28;20221;-47
2023/05/03 12:10:49;;;;;;;1.33;0.82;;;;;;;;;;5093743;28;20226;-47
2023/05/03 12:13:54;;;;;;;1.02;0.90;;;;;;;;;;5092622;28;20563;-47
2023/05/03 12:16:21;;;;;;;1.02;0.93;;;;;;;;;;5094360;28;20218;-48
2023/05/03 12:19:01;;;;;;;2.25;1.20;;;;;;;;;;5093996;28;20233;-47
2023/05/03 12:21:45;;;;;;;2.05;1.00;;;;;;;;;;5093750;28;20293;-47
2023/05/03 12:24:25;;;;;;;1.58;0.85;;;;;;;;;;5093673;28;20289;-48
2023/05/03 12:26:54;;;;;;;1.27;0.90;;;;;;;;;;5092032;28;20215;-47
2023/05/03 12:29:23;;;;;;;1.02;0.90;;;;;;;;;;5092025;28;20233;-47
2023/05/03 12:31:51;;;;;;;1.52;0.93;;;;;;;;;;5091528;28;20276;-47
2023/05/03 12:34:18;;;;;;;1.48;1.25;;;;;;;;;;5092978;28;20246;-46
2023/05/03 12:37:01;;;;;;;1.48;0.88;;;;;;;;;;5093408;28;20226;-47
2023/05/03 12:39:31;;;;;;;1.50;0.93;;;;;;;;;;5093259;28;20574;-46
2023/05/03 12:42:02;;;;;;;1.48;0.80;;;;;;;;;;5091612;28;20313;-47
2023/05/03 12:44:32;;;;;;;0.88;0.70;;;;;;;;;;5092396;28;20230;-46
2023/05/03 12:47:02;;;;;;;1.10;0.80;;;;;;;;;;5092543;28;20620;-47
2023/05/03 12:49:31;;;;;;;0.93;0.75;;;;;;;;;;5091368;28;20234;-49
2023/05/03 12:51:59;;;;;;;0.80;0.57;;;;;;;;;;5091284;28;20605;-47
2023/05/03 12:54:47;;;;;;;0.65;0.60;;;;;;;;;;5089964;28;20214;-46
2023/05/03 12:57:15;;;;;;;0.85;0.75;;;;;;;;;;5091010;28;20577;-46
2023/05/03 12:59:52;;;;;;;2.90;0.95;;;;;;;;;;5090266;28;20225;-47
2023/05/03 13:02:26;;;;;;;0.77;0.70;;;;;;;;;;5091460;28;20231;-46
2023/05/03 13:04:56;;;;;;;1.30;0.75;;;;;;;;;;5093302;28;20230;-45
2023/05/03 13:07:28;;;;;;;0.77;0.70;;;;;;;;;;5092561;28;20691;-46
2023/05/03 13:09:58;;;;;;;0.85;0.65;;;;;;;;;;5093735;28;20291;-44
2023/05/03 13:12:29;;;;;;;1.75;0.90;;;;;;;;;;5092647;28;20230;-45
2023/05/03 13:14:57;;;;;;;1.70;1.13;;;;;;;;;;5093214;28;20229;-45
2023/05/03 13:17:24;;;;;;;1.38;0.93;;;;;;;;;;5092761;28;20692;-45
2023/05/03 13:19:52;;;;;;;0.93;0.57;;;;;;;;;;5093011;28;20230;-53
2023/05/03 13:22:19;;;;;;;1.38;0.88;;;;;;;;;;5093422;28;20223;-54
2023/05/03 13:24:46;;;;;;;1.27;0.75;;;;;;;;;;5092542;28;20230;-52
2023/05/03 13:27:15;;;;;;;0.77;0.70;;;;;;;;;;5091734;28;20223;-51
2023/05/03 13:29:42;;;;;;;2.63;0.73;;;;;;;;;;5092537;28;20235;-49
2023/05/03 13:32:11;;;;;;;2.33;0.75;;;;;;;;;;5084285;28;20215;-48
2023/05/03 13:34:38;;;;;;;1.27;0.80;;;;;;;;;;5089359;28;20256;-49
2023/05/03 13:37:06;;;;;;;1.20;0.68;;;;;;;;;;5092621;28;20221;-49
2023/05/03 13:39:33;;;;;;;1.08;0.75;;;;;;;;;;5088729;28;20230;-49
2023/05/03 13:42:01;;;;;;;1.00;0.75;;;;;;;;;;5092079;28;20244;-49
2023/05/03 13:44:28;;;;;;;3.30;0.80;;;;;;;;;;5091965;28;20233;-52
2023/05/03 13:46:56;;;;;;;0.98;0.75;;;;;;;;;;5091542;28;20222;-50
2023/05/03 13:49:24;;;;;;;2.03;0.80;;;;;;;;;;5092473;28;20218;-50
2023/05/03 13:51:51;;;;;;;0.80;0.60;;;;;;;;;;5092688;28;20728;-50
2023/05/03 13:54:19;;;;;;;1.40;0.70;;;;;;;;;;5092702;28;20215;-47
2023/05/03 13:56:46;;;;;;;1.02;0.82;;;;;;;;;;5091965;28;20601;-47
2023/05/03 13:59:14;;;;;;;1.83;0.85;;;;;;;;;;5092769;28;20234;-47
2023/05/03 14:01:42;;;;;;;1.00;0.80;;;;;;;;;;5089845;28;20258;-46
2023/05/03 14:04:09;;;;;;;1.25;0.82;;;;;;;;;;5073568;28;20225;-46
2023/05/03 14:06:37;;;;;;;0.77;0.60;;;;;;;;;;5072438;28;20223;-46
2023/05/03 14:09:07;;;;;;;0.75;0.60;;;;;;;;;;5085839;28;20273;-47
2023/05/03 14:11:34;;;;;;;0.60;0.47;;;;;;;;;;5085646;28;20340;-47
2023/05/03 14:14:02;;;;;;;0.70;0.60;;;;;;;;;;5092701;28;20237;-48
2023/05/03 14:16:30;;;;;;;1.55;0.60;;;;;;;;;;5091110;28;20264;-47
2023/05/03 14:19:09;;;;;;;1.30;0.75;;;;;;;;;;5092446;28;20234;-46
2023/05/03 14:21:37;;;;;;;1.58;0.93;;;;;;;;;;5092059;28;20226;-47
2023/05/03 14:24:05;;;;;;;3.10;0.70;;;;;;;;;;5091779;28;20210;-46
2023/05/03 14:26:33;;;;;;;0.73;0.55;;;;;;;;;;5091732;28;20273;-47
2023/05/03 14:29:00;;;;;;;0.98;0.70;;;;;;;;;;5091209;28;20280;-47
2023/05/03 14:31:27;;;;;;;1.15;0.60;;;;;;;;;;5092111;28;20226;-47
2023/05/03 14:33:55;;;;;;;1.27;0.80;;;;;;;;;;5098101;28;20218;-50
2023/05/03 14:36:22;;;;;;;0.55;0.40;;;;;;;;;;5091669;28;20225;-49
2023/05/03 14:38:49;;;;;;;1.35;0.55;;;;;;;;;;5088446;28;20214;-48
2023/05/03 14:41:16;;;;;;;0.65;0.55;;;;;;;;;;5074891;28;20254;-47
2023/05/03 14:43:44;;;;;;;1.15;0.63;;;;;;;;;;5083950;28;20203;-47
2023/05/03 14:46:11;;;;;;;2.10;0.70;;;;;;;;;;5093594;28;20217;-49
2023/05/03 14:48:38;;;;;;;1.13;0.57;;;;;;;;;;5094431;28;20195;-48
2023/05/03 14:51:05;;;;;;;0.70;0.68;;;;;;;;;;5095072;28;20197;-48
2023/05/03 14:53:32;;;;;;;2.78;0.82;;;;;;;;;;5095119;28;20208;-46